Airfield :
LOGIN :

Register | Disclaimer

   EN    FR    IT 

 










Legend :    VFR   Marginal VFR   IFR   Intensive IFR   Very Intensive IFR
Visi :
Ceiling :
>= 8 km
>= 3000ft
5 to 8 km
1000 to 3000 ft
1500m to 5 km
500 to 1000 ft
800 to 1500m
200 to 500 ft
< 800m
< 200 ft
Symbols :   Thunderstorms  Fog  Heavy snow  Heavy precipitations  Wind > 20 kt
SIGMETs :     Misc.  Thunderstorms  Icing  Turbulence  Mountain Waves  Volcanic Ashes






- Airport Elevation : 84 ft


LFBC - Cazaux

CURRENT METAR :
  • 282330Z AUTO 18005KT 9000 OVC006 10/10 Q1022

EXPIRED METARs :
  • 282300Z AUTO 17005KT 9000 OVC004 10/10 Q1023
  • 282230Z AUTO 16004KT 9999 OVC004 10/09 Q1023
  • 282200Z AUTO 17005KT 9999 OVC004 10/10 Q1023
  • 282130Z AUTO 18004KT 9999 OVC004 10/10 Q1023
  • 282100Z AUTO 18004KT 5000 -DZ BR BKN003 BKN009 OVC014 10/10 Q1024
  • 282030Z AUTO 19004KT 7000 BKN004 BKN009 OVC017 10/10 Q1024
  • 282000Z AUTO 21004KT 5000 -DZ BR OVC003 10/10 Q1024
  • 281930Z AUTO 22005KT 9999 4700 BKN005 BKN022 BKN034 10/10 Q1024
  • 281900Z AUTO 24004KT 9999 FEW007 BKN039 BKN046 10/09 Q1024
  • 281830Z AUTO 24005KT 9999 FEW019 BKN043 BKN050 10/09 Q1024

TAF TAF LFBC
Valid from the 28 at 15:00 until the 29 at 15:00 UTC


281400Z 2815/2915 25006KT 9999 FEW035
BECMG 2820/2822 BKN008
PROB30
TEMPO 2822/2909 4000 RADZ BKN004



MET'MAP, your aeronautical weather chart ! - Copyright ORBIFLY December 2007 - Disclaimer

ORBIFLY MET'MAP TEAM :

Programming & Development : Alexandra Zaïnal
Original concept : Baudouin d'Aumeries
Technical & hardware support : Manuel Goepfert
Assistance : Marc-Olivier Méhu




SOURCES & CREDITS :

   NOAA